Terminal Aerodrome Forecast
Issued by NWS Pittsburgh, PA

Current Version | Previous Version | Text Only | Print | Product List | Glossary Off
Versions: 1 2 3 4 5 6 7 8 9 10 11 12 13 14 15 16 17 18 19 20 21 22 23 24 25 26 27 28 29 30

000
FTUS41 KPBZ 200800 AAB
TAFPIT
TAF AMD
KPIT 200851Z 2009/2112 31006KT 6SM BR VCSH SCT006 BKN040
      TEMPO 2009/2011 2SM TSRA BKN006 OVC030CB
     FM201200 19006KT P6SM VCSH SCT030 BKN080
     FM201800 22010KT P6SM VCTS BKN040CB
     FM210200 23004KT P6SM SCT040
     FM210600 VRB03KT 5SM BR SCT040=

USA.gov is the U.S. government's official web portal to all federal, state and local government web resources and services.